createdAt,value
2018-11-22T00:01:50.489Z,98.70
2018-11-22T00:04:21.284Z,98.50
2018-11-22T00:06:51.913Z,98.70
2018-11-22T00:09:22.512Z,98.80
2018-11-22T00:11:53.107Z,99.00
2018-11-22T00:14:28.122Z,99.30
2018-11-22T00:16:59.011Z,99.20
2018-11-22T00:19:29.701Z,99.30
2018-11-22T00:22:00.433Z,99.40
2018-11-22T00:24:32.081Z,99.50
2018-11-22T00:27:02.687Z,99.40
2018-11-22T00:29:34.522Z,99.20
2018-11-22T00:32:06.095Z,99.50
2018-11-22T00:34:37.813Z,99.40
2018-11-22T00:37:09.506Z,99.50
2018-11-22T00:39:40.139Z,99.60
2018-11-22T00:42:12.145Z,99.70
2018-11-22T00:44:42.795Z,99.50
2018-11-22T00:47:14.501Z,99.20
2018-11-22T00:49:46.007Z,99.00
2018-11-22T00:52:16.781Z,99.20
2018-11-22T00:54:47.341Z,99.40
2018-11-22T00:57:18.437Z,99.20
2018-11-22T00:59:48.992Z,98.80
2018-11-22T01:02:19.598Z,98.60
2018-11-22T01:04:50.568Z,98.50
2018-11-22T01:07:21.212Z,98.70
2018-11-22T01:09:52.859Z,98.60
2018-11-22T01:12:23.434Z,98.60
2018-11-22T01:14:58.503Z,98.60
2018-11-22T01:17:29.400Z,98.40
2018-11-22T01:20:01.068Z,98.80
2018-11-22T01:22:31.644Z,98.70
2018-11-22T01:25:03.682Z,98.50
2018-11-22T01:27:34.255Z,98.70
2018-11-22T01:30:05.622Z,98.80
2018-11-22T01:32:37.705Z,99.00
2018-11-22T01:35:09.300Z,98.80
2018-11-22T01:37:41.738Z,98.80
2018-11-22T01:40:16.938Z,98.60
2018-11-22T01:42:47.947Z,98.80
2018-11-22T01:45:21.331Z,98.80
2018-11-22T01:47:51.907Z,99.20
2018-11-22T01:50:22.882Z,99.30
2018-11-22T01:52:53.794Z,99.40
2018-11-22T01:55:25.146Z,99.10
2018-11-22T01:57:56.218Z,99.00
2018-11-22T02:00:27.359Z,98.80
2018-11-22T02:02:58.185Z,98.50
2018-11-22T02:05:28.753Z,98.90
2018-11-22T02:07:59.476Z,98.80
2018-11-22T02:10:31.210Z,98.70
2018-11-22T02:13:01.843Z,98.70
2018-11-22T02:15:32.637Z,98.70
2018-11-22T02:18:03.633Z,98.80
2018-11-22T02:20:34.255Z,99.00
2018-11-22T02:23:04.956Z,99.20
2018-11-22T02:25:36.659Z,99.60
2018-11-22T02:28:07.921Z,99.50
2018-11-22T02:30:38.479Z,99.60
2018-11-22T02:33:08.470Z,99.70
2018-11-22T02:35:39.123Z,99.50
2018-11-22T02:38:10.778Z,99.90
2018-11-22T02:40:41.459Z,99.90
2018-11-22T02:43:13.190Z,99.90
2018-11-22T02:45:44.137Z,99.90
2018-11-22T02:48:14.790Z,99.90
2018-11-22T02:50:45.364Z,99.90
2018-11-22T02:53:16.436Z,99.90
2018-11-22T02:55:47.197Z,99.90
2018-11-22T02:58:17.792Z,99.90
2018-11-22T03:00:48.407Z,99.90
2018-11-22T03:03:19.001Z,99.90
2018-11-22T03:05:49.677Z,99.90
2018-11-22T03:08:20.297Z,99.90
2018-11-22T03:10:50.976Z,99.90
2018-11-22T03:13:22.112Z,99.90
2018-11-22T03:15:52.782Z,99.90
2018-11-22T03:18:24.734Z,99.90
2018-11-22T03:20:55.358Z,99.90
2018-11-22T03:23:26.017Z,99.90
2018-11-22T03:25:56.656Z,99.90
2018-11-22T03:28:27.308Z,99.90
2018-11-22T03:30:57.951Z,99.90
2018-11-22T03:33:28.666Z,99.90
2018-11-22T03:36:00.021Z,99.90
2018-11-22T03:38:30.976Z,99.90
2018-11-22T03:41:02.076Z,99.90
2018-11-22T03:43:32.644Z,99.90
2018-11-22T03:46:03.286Z,99.90
2018-11-22T03:48:34.379Z,99.90
2018-11-22T03:51:06.832Z,99.90
2018-11-22T03:53:37.576Z,99.90
2018-11-22T03:56:08.248Z,99.90
2018-11-22T03:58:38.849Z,99.90
2018-11-22T04:01:09.409Z,99.90
2018-11-22T04:03:40.007Z,99.90
2018-11-22T04:06:13.994Z,99.90
2018-11-22T04:08:44.662Z,99.90
2018-11-22T04:11:15.247Z,99.90
2018-11-22T04:13:46.312Z,99.90
2018-11-22T04:16:17.431Z,99.90
2018-11-22T04:18:48.203Z,99.90
2018-11-22T04:21:18.797Z,99.90
2018-11-22T04:23:49.369Z,99.90
2018-11-22T04:26:24.047Z,99.90
2018-11-22T04:28:50.746Z,99.90
2018-11-22T04:31:21.415Z,99.90
2018-11-22T04:33:53.170Z,99.90
2018-11-22T04:36:23.865Z,99.90
2018-11-22T04:38:54.669Z,99.90
2018-11-22T04:41:25.478Z,99.90
2018-11-22T04:43:57.336Z,99.90
2018-11-22T04:46:28.241Z,99.90
2018-11-22T04:49:00.291Z,99.90
2018-11-22T04:51:31.655Z,99.90
2018-11-22T04:54:02.455Z,99.80
2018-11-22T04:56:33.085Z,99.60
2018-11-22T04:59:03.760Z,99.70
2018-11-22T05:01:34.311Z,99.60
2018-11-22T05:04:06.056Z,99.80
2018-11-22T05:06:36.636Z,99.90
2018-11-22T05:09:09.997Z,99.90
2018-11-22T05:11:40.595Z,99.90
2018-11-22T05:14:11.239Z,99.90
2018-11-22T05:16:42.006Z,99.90
2018-11-22T05:19:12.604Z,99.80
2018-11-22T05:21:43.232Z,99.80
2018-11-22T05:24:14.189Z,99.90
2018-11-22T05:26:45.025Z,99.90
2018-11-22T05:29:15.698Z,99.90
2018-11-22T05:31:46.478Z,99.80
2018-11-22T05:34:17.109Z,99.90
2018-11-22T05:36:47.965Z,99.80
2018-11-22T05:39:19.038Z,99.90
2018-11-22T05:41:50.229Z,99.90
2018-11-22T05:44:21.221Z,99.90
2018-11-22T05:46:53.940Z,99.90
2018-11-22T05:49:24.564Z,99.90
2018-11-22T05:51:56.940Z,99.90
2018-11-22T05:54:28.613Z,99.90
2018-11-22T05:56:59.573Z,99.90
2018-11-22T05:59:30.275Z,99.90
2018-11-22T06:02:01.188Z,99.90
2018-11-22T06:04:32.852Z,99.90
2018-11-22T06:07:03.489Z,99.90
2018-11-22T06:09:34.132Z,99.90
2018-11-22T06:12:05.023Z,99.90
2018-11-22T06:14:35.658Z,99.90
2018-11-22T06:17:07.362Z,99.90
2018-11-22T06:19:38.916Z,99.90
2018-11-22T06:22:09.660Z,99.90
2018-11-22T06:24:40.277Z,99.90
2018-11-22T06:27:10.875Z,99.90
2018-11-22T06:29:41.571Z,99.90
2018-11-22T06:32:12.129Z,99.90
2018-11-22T06:34:43.116Z,99.90
2018-11-22T06:37:14.046Z,99.90
2018-11-22T06:39:46.497Z,99.90
2018-11-22T06:42:17.149Z,99.90
2018-11-22T06:44:47.848Z,99.90
2018-11-22T06:47:18.763Z,99.90
2018-11-22T06:49:49.364Z,99.90
2018-11-22T06:52:21.006Z,99.90
2018-11-22T06:54:51.712Z,99.90
2018-11-22T06:57:22.420Z,99.90
2018-11-22T06:59:53.083Z,99.90
2018-11-22T07:02:26.144Z,99.90
2018-11-22T07:04:56.738Z,99.90
2018-11-22T07:07:27.972Z,99.90
2018-11-22T07:09:58.569Z,99.90
2018-11-22T07:12:29.286Z,99.90
2018-11-22T07:15:00.329Z,99.90
2018-11-22T07:17:31.099Z,99.90
2018-11-22T07:20:01.823Z,99.90
2018-11-22T07:22:32.438Z,99.90
2018-11-22T07:25:03.445Z,99.90
2018-11-22T07:27:38.264Z,99.90
2018-11-22T07:30:04.916Z,99.90
2018-11-22T07:32:35.635Z,99.90
2018-11-22T07:35:08.117Z,99.90
2018-11-22T07:37:40.369Z,99.90
2018-11-22T07:40:13.697Z,99.90
2018-11-22T07:42:50.567Z,99.90
2018-11-22T07:45:17.653Z,99.90
2018-11-22T07:47:48.607Z,99.90
2018-11-22T07:50:21.143Z,99.90
2018-11-22T07:52:52.373Z,99.90
2018-11-22T07:55:23.441Z,99.90
2018-11-22T07:57:53.996Z,99.90
2018-11-22T08:00:37.661Z,99.90
2018-11-22T08:03:08.865Z,99.90
2018-11-22T08:05:41.285Z,99.90
2018-11-22T08:08:12.505Z,99.90
2018-11-22T08:10:44.265Z,99.90
2018-11-22T08:13:16.263Z,99.90
2018-11-22T08:15:46.997Z,99.90
2018-11-22T08:18:17.599Z,99.90
2018-11-22T08:20:48.350Z,99.90
2018-11-22T08:23:18.980Z,99.90
2018-11-22T08:25:50.623Z,99.90
2018-11-22T08:28:21.287Z,99.90
2018-11-22T08:30:52.094Z,99.90
2018-11-22T08:33:22.702Z,99.90
2018-11-22T08:35:54.047Z,99.90
2018-11-22T08:38:24.831Z,99.90
2018-11-22T08:40:55.544Z,99.90
2018-11-22T08:43:26.173Z,99.90
2018-11-22T08:45:56.869Z,99.90
2018-11-22T08:48:28.604Z,99.90
2018-11-22T08:50:59.164Z,99.90
2018-11-22T08:53:33.310Z,99.80
2018-11-22T08:56:00.551Z,99.80
2018-11-22T08:58:32.257Z,99.90
2018-11-22T09:01:02.804Z,99.60
2018-11-22T09:03:33.503Z,99.60
2018-11-22T09:06:04.374Z,99.30
2018-11-22T09:08:35.023Z,99.20
2018-11-22T09:11:05.803Z,98.70
2018-11-22T09:13:36.455Z,98.80
2018-11-22T09:16:07.521Z,99.10
2018-11-22T09:18:38.273Z,99.20
2018-11-22T09:21:09.071Z,99.10
2018-11-22T09:23:39.922Z,98.70
2018-11-22T09:26:10.503Z,98.80
2018-11-22T09:28:41.289Z,98.60
2018-11-22T09:31:11.868Z,98.80
2018-11-22T09:36:16.236Z,99.10
2018-11-22T09:38:46.939Z,97.90
2018-11-22T09:41:18.750Z,98.60
2018-11-22T09:43:50.022Z,98.40
2018-11-22T09:46:21.250Z,98.60
2018-11-22T09:48:51.935Z,98.60
2018-11-22T09:51:22.924Z,98.10
2018-11-22T09:53:53.612Z,98.90
2018-11-22T09:56:24.319Z,98.40
2018-11-22T09:58:55.106Z,97.70
2018-11-22T10:01:25.852Z,98.20
2018-11-22T10:03:56.583Z,97.90
2018-11-22T10:06:27.214Z,97.70
2018-11-22T10:08:57.951Z,97.60
2018-11-22T10:11:28.556Z,96.60
2018-11-22T10:13:59.273Z,95.70
2018-11-22T10:16:31.129Z,93.60
2018-11-22T10:19:01.921Z,92.10
2018-11-22T10:21:34.415Z,89.00
2018-11-22T10:24:05.482Z,89.60
2018-11-22T10:26:38.742Z,89.10
2018-11-22T10:29:10.599Z,87.00
2018-11-22T10:31:41.378Z,86.30
2018-11-22T10:34:12.236Z,81.80
2018-11-22T10:36:43.205Z,79.00
2018-11-22T10:39:14.101Z,82.30
2018-11-22T10:41:45.797Z,79.10
2018-11-22T10:44:17.593Z,81.50
2018-11-22T10:46:48.203Z,86.00
2018-11-22T10:49:19.332Z,81.80
2018-11-22T10:51:49.964Z,78.70
2018-11-22T10:54:20.733Z,78.60
2018-11-22T10:56:51.383Z,80.00
2018-11-22T10:59:22.183Z,75.00
2018-11-22T12:17:39.422Z,92.40
2018-11-22T12:20:10.162Z,92.10
2018-11-22T12:22:40.483Z,91.80
2018-11-22T12:25:13.788Z,91.10
2018-11-22T12:27:46.480Z,91.10
2018-11-22T12:30:27.109Z,91.10
2018-11-22T12:33:05.325Z,91.20
2018-11-22T12:35:46.603Z,91.20
2018-11-22T12:38:25.148Z,91.20
2018-11-22T12:40:57.531Z,91.60
2018-11-22T12:43:26.911Z,91.90
2018-11-22T12:45:56.097Z,91.90
2018-11-22T12:48:29.138Z,91.80
2018-11-22T12:50:58.393Z,92.30
2018-11-22T12:53:27.989Z,92.10
2018-11-22T12:55:57.299Z,91.40
2018-11-22T12:58:27.280Z,92.10
2018-11-22T13:00:57.356Z,91.50
2018-11-22T13:03:26.513Z,91.40
2018-11-22T13:05:55.710Z,92.10
2018-11-22T13:08:25.191Z,91.40
2018-11-22T13:10:55.464Z,91.70
2018-11-22T13:13:24.682Z,91.80
2018-11-22T13:15:53.797Z,92.70
2018-11-22T13:18:23.020Z,92.90
2018-11-22T13:20:52.180Z,92.30
2018-11-22T13:23:21.340Z,92.50
2018-11-22T13:25:52.090Z,93.40
2018-11-22T13:28:21.210Z,94.50
2018-11-22T13:30:50.340Z,94.20
2018-11-22T13:33:19.446Z,94.20
2018-11-22T13:35:49.670Z,94.80
2018-11-22T13:38:18.773Z,95.00
2018-11-22T13:40:47.949Z,95.20
2018-11-22T13:43:17.039Z,95.40
2018-11-22T13:45:46.140Z,94.90
2018-11-22T13:48:15.229Z,94.80
2018-11-22T13:50:44.446Z,94.70
2018-11-22T13:53:13.569Z,94.90
2018-11-22T13:55:43.829Z,95.10
2018-11-22T13:58:13.036Z,95.10
2018-11-22T14:00:43.254Z,95.30
2018-11-22T14:03:12.408Z,95.30
2018-11-22T14:05:41.580Z,95.20
2018-11-22T14:08:10.791Z,95.30
2018-11-22T14:10:39.960Z,95.40
2018-11-22T14:13:09.047Z,95.70
2018-11-22T14:15:39.283Z,95.70
2018-11-22T14:18:08.411Z,95.90
2018-11-22T14:20:38.649Z,95.90
2018-11-22T14:23:07.734Z,95.90
2018-11-22T14:27:08.289Z,96.20
2018-11-22T14:29:37.553Z,96.60
2018-11-22T14:32:06.679Z,96.00
2018-11-22T14:34:35.761Z,95.90
2018-11-22T14:37:05.377Z,95.90
2018-11-22T14:39:34.456Z,95.90
2018-11-22T14:42:03.733Z,96.20
2018-11-22T14:44:32.964Z,96.00
2018-11-22T14:47:02.105Z,96.90
2018-11-22T14:49:31.253Z,97.40
2018-11-22T14:52:00.807Z,96.40
2018-11-22T14:54:29.917Z,96.10
2018-11-22T14:56:59.048Z,95.70
2018-11-22T14:59:28.168Z,94.90
2018-11-22T15:01:58.260Z,95.00
2018-11-22T15:04:27.469Z,95.20
2018-11-22T15:06:56.580Z,95.40
2018-11-22T15:09:27.769Z,95.30
2018-11-22T15:11:57.003Z,95.60
2018-11-22T15:14:27.389Z,95.50
2018-11-22T15:16:56.557Z,95.20
2018-11-22T15:19:26.875Z,95.00
2018-11-22T15:21:56.086Z,95.00
2018-11-22T15:24:25.266Z,95.50
2018-11-22T15:26:54.372Z,95.30
2018-11-22T15:29:23.603Z,95.20
2018-11-22T15:31:53.004Z,95.30
2018-11-22T15:34:22.970Z,95.60
2018-11-22T15:36:52.351Z,95.90
2018-11-22T15:39:21.674Z,95.60
2018-11-22T15:41:51.827Z,95.50
2018-11-22T15:44:21.033Z,95.20
2018-11-22T15:46:50.192Z,95.30
2018-11-22T15:49:19.290Z,95.10
2018-11-22T15:51:48.490Z,95.40
2018-11-22T15:54:18.408Z,95.90
2018-11-22T15:56:47.576Z,95.80
2018-11-22T15:59:16.949Z,95.90
2018-11-22T16:01:46.054Z,95.50
2018-11-22T16:04:15.270Z,95.20
2018-11-22T16:06:45.070Z,95.00
2018-11-22T16:09:14.225Z,95.00
2018-11-22T16:11:43.454Z,95.40
2018-11-22T16:14:12.664Z,95.30
2018-11-22T16:16:41.992Z,95.80
2018-11-22T16:19:11.748Z,96.40
2018-11-22T16:21:43.018Z,96.30
2018-11-22T16:24:13.283Z,96.10
2018-11-22T16:26:43.523Z,96.60
2018-11-22T16:29:12.687Z,96.70
2018-11-22T16:31:42.917Z,96.80
2018-11-22T16:34:12.334Z,97.00
2018-11-22T16:36:41.512Z,97.40
2018-11-22T16:39:11.202Z,98.30
2018-11-22T16:41:40.364Z,98.30
2018-11-22T16:44:09.496Z,97.80
2018-11-22T16:46:38.663Z,98.30
2018-11-22T16:49:08.600Z,97.90
2018-11-22T16:51:39.800Z,98.20
2018-11-22T16:54:08.897Z,98.20
2018-11-22T16:56:40.062Z,98.10
2018-11-22T16:59:09.224Z,98.40
2018-11-22T17:01:38.400Z,98.30
2018-11-22T17:04:07.479Z,98.60
2018-11-22T17:06:36.788Z,98.80
2018-11-22T17:09:08.770Z,98.70
2018-11-22T17:11:39.232Z,98.70
2018-11-22T17:14:08.367Z,99.20
2018-11-22T17:16:39.514Z,99.60
2018-11-22T17:19:08.598Z,99.50
2018-11-22T17:21:37.895Z,99.50
2018-11-22T17:24:07.239Z,99.10
2018-11-22T17:26:36.438Z,98.70
2018-11-22T17:29:05.596Z,99.30
2018-11-22T17:31:35.818Z,99.70
2018-11-22T17:34:04.990Z,99.60
2018-11-22T17:36:35.218Z,99.80
2018-11-22T17:39:07.178Z,99.80
2018-11-22T17:41:37.092Z,99.40
2018-11-22T17:44:06.478Z,99.30
2018-11-22T17:46:37.339Z,99.30
2018-11-22T17:49:07.182Z,99.70
2018-11-22T17:51:36.504Z,99.50
2018-11-22T17:54:06.414Z,99.90
2018-11-22T17:56:35.617Z,99.20
2018-11-22T17:59:04.792Z,99.10
2018-11-22T18:01:34.059Z,99.30
2018-11-22T18:04:04.258Z,99.80
2018-11-22T18:06:33.530Z,99.90
2018-11-22T18:09:02.736Z,99.90
2018-11-22T18:11:31.963Z,99.90
2018-11-22T18:14:01.116Z,99.90
2018-11-22T18:16:30.237Z,99.90
2018-11-22T18:19:00.453Z,99.90
2018-11-22T18:21:29.554Z,99.90
2018-11-22T18:23:58.786Z,99.90
2018-11-22T18:26:28.909Z,99.90
2018-11-22T18:28:58.878Z,99.60
2018-11-22T18:31:28.014Z,99.60
2018-11-22T18:33:57.134Z,99.60
2018-11-22T18:36:26.316Z,99.20
2018-11-22T18:38:55.400Z,98.80
2018-11-22T18:41:24.544Z,99.10
2018-11-22T18:43:53.686Z,99.10
2018-11-22T18:46:22.950Z,99.00
2018-11-22T18:48:52.646Z,99.20
2018-11-22T18:51:21.958Z,98.70
2018-11-22T18:53:51.203Z,98.60
2018-11-22T18:56:20.362Z,98.80
2018-11-22T18:58:51.457Z,98.30
2018-11-22T19:01:22.276Z,98.50
2018-11-22T19:03:52.595Z,98.40
2018-11-22T19:06:21.718Z,99.00
2018-11-22T19:08:50.926Z,98.80
2018-11-22T19:11:20.091Z,99.00
2018-11-22T19:13:55.161Z,99.10
2018-11-22T19:16:25.044Z,99.30
2018-11-22T19:18:54.202Z,99.70
2018-11-22T19:21:23.561Z,99.90
2018-11-22T19:23:53.821Z,99.90
2018-11-22T19:26:22.967Z,99.90
2018-11-22T19:28:52.163Z,99.90
2018-11-22T19:31:21.454Z,99.90
2018-11-22T19:33:50.948Z,99.90
2018-11-22T19:36:21.339Z,99.90
2018-11-22T19:38:50.456Z,99.90
2018-11-22T19:41:20.659Z,99.90
2018-11-22T19:43:49.753Z,99.90
2018-11-22T19:46:18.978Z,99.90
2018-11-22T19:48:48.573Z,99.90
2018-11-22T19:51:19.732Z,99.90
2018-11-22T19:53:48.876Z,99.90
2018-11-22T19:56:20.274Z,99.90
2018-11-22T19:58:49.493Z,99.90
2018-11-22T20:01:19.835Z,99.90
2018-11-22T20:03:48.988Z,99.90
2018-11-22T20:06:18.179Z,99.70
2018-11-22T20:08:47.536Z,99.90
2018-11-22T20:11:16.643Z,99.90
2018-11-22T20:13:45.926Z,99.90
2018-11-22T20:16:15.032Z,99.90
2018-11-22T20:18:45.216Z,99.90
2018-11-22T20:21:14.411Z,99.90
2018-11-22T20:23:43.641Z,99.90
2018-11-22T20:26:12.949Z,99.90
2018-11-22T20:28:44.195Z,99.90
2018-11-22T20:31:13.371Z,99.90
2018-11-22T20:33:42.508Z,99.90
2018-11-22T20:36:11.643Z,99.90
2018-11-22T20:38:41.801Z,99.90
2018-11-22T20:41:11.094Z,99.90
2018-11-22T20:43:41.260Z,99.90
2018-11-22T20:46:10.561Z,99.90
2018-11-22T20:48:40.848Z,99.90
2018-11-22T20:51:10.073Z,99.90
2018-11-22T20:53:39.331Z,99.90
2018-11-22T20:56:08.414Z,99.90
2018-11-22T20:58:37.591Z,99.90
2018-11-22T21:01:07.044Z,99.90
2018-11-22T21:03:36.177Z,99.90
2018-11-22T21:06:05.863Z,99.90
2018-11-22T21:08:35.168Z,99.90
2018-11-22T21:11:04.553Z,99.90
2018-11-22T21:13:34.778Z,99.90
2018-11-22T21:16:03.932Z,99.90
2018-11-22T21:18:33.085Z,99.90
2018-11-22T21:21:02.190Z,99.90
2018-11-22T21:23:31.391Z,99.90
2018-11-22T21:26:00.521Z,99.90
2018-11-22T21:28:30.832Z,99.90
2018-11-22T21:30:59.931Z,99.90
2018-11-22T21:33:30.200Z,99.90
2018-11-22T21:35:59.336Z,99.90
2018-11-22T21:38:28.632Z,99.90
2018-11-22T21:40:57.855Z,99.90
2018-11-22T21:43:27.003Z,99.90
2018-11-22T21:45:56.132Z,99.90
2018-11-22T21:48:26.347Z,99.90
2018-11-22T21:50:55.621Z,99.90
2018-11-22T21:53:26.811Z,99.90
2018-11-22T21:55:56.594Z,99.90
2018-11-22T21:58:27.737Z,99.90
2018-11-22T22:00:56.876Z,99.90
2018-11-22T22:03:27.051Z,99.90
2018-11-22T22:05:56.255Z,99.90
2018-11-22T22:08:25.439Z,99.90
2018-11-22T22:10:54.524Z,99.90
2018-11-22T22:13:23.963Z,99.90
2018-11-22T22:15:53.076Z,99.90
2018-11-22T22:18:23.314Z,99.90
2018-11-22T22:20:52.794Z,99.90
2018-11-22T22:23:23.036Z,99.90
2018-11-22T22:25:52.198Z,99.90
2018-11-22T22:28:21.524Z,99.90
2018-11-22T22:30:51.295Z,99.90
2018-11-22T22:33:21.476Z,99.90
2018-11-22T22:35:50.652Z,99.90
2018-11-22T22:38:19.748Z,99.90
2018-11-22T22:40:48.999Z,99.90
2018-11-22T22:43:18.368Z,99.90
2018-11-22T22:45:48.810Z,99.90
2018-11-22T22:48:17.950Z,99.90
2018-11-22T22:50:48.176Z,99.90
2018-11-22T22:53:17.526Z,99.90
2018-11-22T22:55:46.766Z,99.90
2018-11-22T22:58:15.832Z,99.90
2018-11-22T23:00:49.056Z,99.90
2018-11-22T23:03:18.199Z,99.90
2018-11-22T23:05:47.302Z,99.90
2018-11-22T23:08:16.575Z,99.90
2018-11-22T23:10:45.730Z,99.90
2018-11-22T23:13:16.182Z,99.90
2018-11-22T23:15:45.287Z,99.90
2018-11-22T23:18:14.521Z,99.90
2018-11-22T23:20:43.633Z,99.90
2018-11-22T23:23:12.879Z,99.90
2018-11-22T23:25:42.031Z,99.90
2018-11-22T23:28:11.254Z,99.90
2018-11-22T23:30:40.491Z,99.90
2018-11-22T23:33:09.975Z,99.90
2018-11-22T23:35:40.185Z,99.90
2018-11-22T23:38:09.287Z,99.90
2018-11-22T23:40:39.610Z,99.90
2018-11-22T23:43:08.695Z,99.90
2018-11-22T23:45:38.479Z,99.90
2018-11-22T23:48:07.621Z,99.90
2018-11-22T23:50:38.899Z,99.90
2018-11-22T23:53:13.775Z,99.90
2018-11-22T23:55:43.046Z,99.90
2018-11-22T23:58:12.187Z,99.90
